Time;durP1;ratioP1;P1;durP2;ratioP2;P2;SDS_P1;SDS_P2;PMS_P1;PMS_P2;Temp;Humidity;BMP_temperature;BMP_pressure;BME280_temperature;BME280_humidity;BME280_pressure;Samples;Min_cycle;Max_cycle;Signal;HPM_P1;HPM_P2
2022/07/22 00:00:32;;;;;;;73.17;18.13;;;19.00;99.90;;;;;;5080773;28;20422;-84
2022/07/22 00:02:58;;;;;;;74.77;17.93;;;18.90;99.90;;;;;;5079828;28;20167;-84
2022/07/22 00:05:23;;;;;;;72.63;20.97;;;18.90;99.90;;;;;;5078635;28;20243;-84
2022/07/22 00:07:49;;;;;;;73.97;18.30;;;18.80;99.90;;;;;;5079024;28;20188;-84
2022/07/22 00:10:15;;;;;;;73.60;22.73;;;18.80;99.90;;;;;;5081093;28;20156;-84
2022/07/22 00:12:41;;;;;;;75.00;20.07;;;18.70;99.90;;;;;;5079162;28;20218;-84
2022/07/22 00:15:08;;;;;;;74.77;22.60;;;18.70;99.90;;;;;;5062185;28;20190;-84
2022/07/22 00:17:36;;;;;;;70.77;18.27;;;18.80;99.90;;;;;;5080408;28;20426;-84
2022/07/22 00:20:03;;;;;;;73.17;18.40;;;18.80;99.90;;;;;;5085761;28;20396;-84
2022/07/22 00:22:28;;;;;;;74.87;23.40;;;18.80;99.90;;;;;;5087230;28;20409;-84
2022/07/22 00:24:54;;;;;;;73.33;21.03;;;18.80;99.90;;;;;;5087735;28;20402;-84
2022/07/22 00:27:20;;;;;;;71.67;19.40;;;18.80;99.90;;;;;;5086812;28;20184;-83
2022/07/22 00:29:45;;;;;;;74.17;19.40;;;18.80;99.90;;;;;;5087871;28;20405;-84
2022/07/22 00:32:11;;;;;;;74.33;19.20;;;18.80;99.90;;;;;;5088574;28;20190;-84
2022/07/22 00:34:37;;;;;;;74.63;19.00;;;18.80;99.90;;;;;;5088150;28;20247;-84
2022/07/22 00:37:04;;;;;;;70.27;17.20;;;18.90;99.90;;;;;;5087090;28;20473;-83
2022/07/22 00:39:30;;;;;;;75.50;16.13;;;18.90;99.90;;;;;;5087015;28;20624;-84
2022/07/22 00:41:56;;;;;;;71.90;16.77;;;18.90;99.90;;;;;;5088690;28;20464;-84
2022/07/22 00:44:22;;;;;;;70.83;16.13;;;18.80;99.90;;;;;;5162702;22;20682;-83
2022/07/22 00:46:48;;;;;;;72.47;17.47;;;18.90;99.90;;;;;;5088318;28;20403;-83
2022/07/22 00:49:13;;;;;;;72.20;14.23;;;18.90;99.90;;;;;;5087807;28;20183;-83
2022/07/22 00:51:39;;;;;;;70.50;13.00;;;18.80;99.90;;;;;;5087416;28;20217;-83
2022/07/22 00:54:06;;;;;;;67.80;11.90;;;18.90;99.90;;;;;;5088549;28;20181;-83
2022/07/22 00:56:32;;;;;;;73.17;15.70;;;18.90;99.90;;;;;;5086841;28;20243;-83
2022/07/22 00:59:01;;;;;;;72.77;15.10;;;18.90;99.90;;;;;;5087054;28;20941;-83
2022/07/22 01:01:26;;;;;;;68.60;11.60;;;18.90;99.90;;;;;;5069490;28;20172;-83
2022/07/22 01:03:52;;;;;;;68.57;12.27;;;19.00;99.90;;;;;;5068508;28;20489;-83
2022/07/22 01:06:18;;;;;;;71.20;8.40;;;18.90;99.90;;;;;;5070229;28;20235;-83
2022/07/22 01:08:44;;;;;;;67.60;10.10;;;18.90;99.90;;;;;;5087679;28;20457;-83
2022/07/22 01:11:18;;;;;;;71.50;13.10;;;18.80;99.90;;;;;;5087529;28;20160;-83
2022/07/22 01:13:45;;;;;;;68.77;9.63;;;18.80;99.90;;;;;;5086982;28;20236;-83
2022/07/22 01:16:13;;;;;;;68.97;9.60;;;18.80;99.90;;;;;;5087164;28;20398;-83
2022/07/22 01:18:39;;;;;;;71.60;12.23;;;18.80;99.90;;;;;;5088226;28;20425;-83
2022/07/22 01:21:06;;;;;;;68.00;8.87;;;18.90;99.90;;;;;;5068515;28;20413;-83
2022/07/22 01:23:32;;;;;;;71.80;11.27;;;18.80;99.90;;;;;;5087316;28;20431;-83
2022/07/22 01:25:58;;;;;;;69.53;10.43;;;18.80;99.90;;;;;;5069221;28;20851;-83
2022/07/22 01:28:24;;;;;;;67.17;10.87;;;18.80;99.90;;;;;;5069457;28;20489;-83
2022/07/22 01:30:50;;;;;;;71.20;9.77;;;18.80;99.90;;;;;;5083995;28;20480;-83
2022/07/22 01:33:20;;;;;;;72.83;10.93;;;18.70;99.90;;;;;;5084168;28;20442;-83
2022/07/22 01:35:46;;;;;;;69.20;9.97;;;18.70;99.90;;;;;;5084162;28;20378;-83
2022/07/22 01:38:13;;;;;;;69.00;11.10;;;18.70;99.90;;;;;;5083974;28;20434;-83
2022/07/22 01:40:40;;;;;;;71.67;10.27;;;18.70;99.90;;;;;;5084250;28;20403;-83
2022/07/22 01:43:06;;;;;;;74.70;11.50;;;18.70;99.90;;;;;;5066196;28;20922;-83
2022/07/22 01:45:32;;;;;;;70.90;11.63;;;18.80;99.90;;;;;;5083868;28;20447;-83
2022/07/22 01:47:58;;;;;;;71.93;11.37;;;18.70;99.90;;;;;;5065934;28;20847;-83
2022/07/22 01:50:24;;;;;;;69.77;10.07;;;18.70;99.90;;;;;;5066337;28;20402;-83
2022/07/22 01:52:51;;;;;;;72.60;12.00;;;18.70;99.90;;;;;;5065020;28;20438;-84
2022/07/22 01:55:17;;;;;;;71.87;10.07;;;18.70;99.90;;;;;;5082862;28;20448;-83
2022/07/22 01:57:43;;;;;;;74.83;11.10;;;18.70;99.90;;;;;;5064249;28;20509;-83
2022/07/22 02:00:11;;;;;;;82.87;12.63;;;18.60;99.90;;;;;;5082119;28;20455;-83
2022/07/22 02:02:37;;;;;;;71.30;15.10;;;18.50;99.90;;;;;;5065128;28;20643;-83
2022/07/22 02:05:07;;;;;;;72.37;13.93;;;18.50;99.90;;;;;;5083294;28;20406;-83
2022/07/22 02:07:33;;;;;;;74.97;13.27;;;18.50;99.90;;;;;;5066192;28;20426;-83
2022/07/22 02:09:59;;;;;;;70.63;13.00;;;18.50;99.90;;;;;;5064604;28;20429;-83
2022/07/22 02:12:25;;;;;;;70.63;12.10;;;18.50;99.90;;;;;;5082777;28;20433;-83
2022/07/22 02:14:50;;;;;;;72.80;12.20;;;18.50;99.90;;;;;;5064333;28;20434;-83
2022/07/22 02:17:16;;;;;;;73.63;11.90;;;18.50;99.90;;;;;;5083026;28;20410;-83
2022/07/22 02:19:42;;;;;;;71.50;10.30;;;18.60;99.90;;;;;;5082860;28;20172;-83
2022/07/22 02:22:08;;;;;;;69.43;10.83;;;18.60;99.90;;;;;;5082264;28;20232;-84
2022/07/22 02:24:34;;;;;;;77.43;10.97;;;18.60;99.90;;;;;;5082567;28;20898;-83
2022/07/22 02:27:01;;;;;;;70.27;10.87;;;18.60;99.90;;;;;;5082376;28;20429;-82
2022/07/22 02:29:27;;;;;;;74.30;11.70;;;18.70;99.90;;;;;;5064762;28;20937;-83
2022/07/22 02:31:52;;;;;;;72.67;11.40;;;18.70;99.90;;;;;;5064604;28;20449;-83
2022/07/22 02:34:18;;;;;;;72.83;11.40;;;18.60;99.90;;;;;;5082912;28;20434;-83
2022/07/22 02:36:44;;;;;;;67.87;9.43;;;18.60;99.90;;;;;;5081838;28;20160;-83
2022/07/22 02:39:10;;;;;;;69.47;9.13;;;18.60;99.90;;;;;;5081880;28;20256;-83
2022/07/22 02:41:35;;;;;;;69.60;9.40;;;18.60;99.90;;;;;;5080900;28;20168;-84
2022/07/22 02:44:01;;;;;;;71.90;10.93;;;18.60;99.90;;;;;;5082262;28;20183;-84
2022/07/22 02:46:30;;;;;;;69.30;9.27;;;18.50;99.90;;;;;;5081905;28;20235;-83
2022/07/22 02:48:56;;;;;;;72.57;10.33;;;18.50;99.90;;;;;;5082009;28;20184;-83
2022/07/22 02:51:22;;;;;;;70.80;9.87;;;18.50;99.90;;;;;;5063466;28;20449;-82
2022/07/22 02:53:47;;;;;;;72.37;9.87;;;18.50;99.90;;;;;;5081442;28;20403;-84
2022/07/22 02:56:14;;;;;;;69.97;10.70;;;18.50;99.90;;;;;;5063202;28;20191;-83
2022/07/22 02:58:40;;;;;;;72.03;10.90;;;18.40;99.90;;;;;;5081603;28;20176;-83
2022/07/22 03:01:06;;;;;;;68.47;10.30;;;18.40;99.90;;;;;;5081848;28;20394;-83
2022/07/22 03:03:32;;;;;;;67.40;8.40;;;18.40;99.90;;;;;;5080609;28;20429;-83
2022/07/22 03:05:58;;;;;;;72.00;10.87;;;18.50;99.90;;;;;;5081731;28;20406;-84
2022/07/22 03:08:25;;;;;;;69.70;8.70;;;18.50;99.90;;;;;;5081216;28;20229;-83
2022/07/22 03:10:51;;;;;;;74.13;8.90;;;18.50;99.90;;;;;;5082147;28;20160;-83
2022/07/22 03:13:16;;;;;;;68.67;9.80;;;18.50;99.90;;;;;;5080972;28;20473;-83
2022/07/22 03:15:42;;;;;;;71.37;7.93;;;18.50;99.90;;;;;;5081338;28;20766;-83
2022/07/22 03:18:08;;;;;;;67.40;9.47;;;18.50;99.90;;;;;;5081075;28;20241;-83
2022/07/22 03:20:34;;;;;;;68.83;9.10;;;18.50;99.90;;;;;;5080291;28;20242;-83
2022/07/22 03:23:00;;;;;;;70.80;10.20;;;18.50;99.90;;;;;;5080799;28;20164;-84
2022/07/22 03:25:25;;;;;;;69.47;9.30;;;18.50;99.90;;;;;;5062188;28;20532;-83
2022/07/22 03:27:51;;;;;;;71.70;10.80;;;18.50;99.90;;;;;;5080223;28;20491;-83
2022/07/22 03:30:17;;;;;;;71.33;11.57;;;18.40;99.90;;;;;;5062840;28;20172;-83
2022/07/22 03:32:44;;;;;;;69.10;8.80;;;18.40;99.90;;;;;;5062767;28;20188;-83
2022/07/22 03:35:14;;;;;;;74.30;9.97;;;18.40;99.90;;;;;;5062175;28;20819;-83
2022/07/22 03:37:40;;;;;;;71.47;9.60;;;18.40;99.90;;;;;;5079665;28;20460;-83
2022/07/22 03:40:06;;;;;;;71.87;11.93;;;18.30;99.90;;;;;;5063977;28;20407;-83
2022/07/22 03:42:32;;;;;;;76.03;12.37;;;18.30;99.90;;;;;;5081037;28;20193;-83
2022/07/22 03:44:58;;;;;;;69.83;12.47;;;18.30;99.90;;;;;;5081346;28;20452;-83
2022/07/22 03:47:24;;;;;;;69.50;11.83;;;18.40;99.90;;;;;;5081173;28;20426;-83
2022/07/22 03:49:50;;;;;;;70.37;13.40;;;18.40;99.90;;;;;;5062347;28;20168;-82
2022/07/22 03:52:16;;;;;;;74.37;11.90;;;18.30;99.90;;;;;;5080007;28;20571;-83
2022/07/22 03:54:43;;;;;;;69.77;13.10;;;18.30;99.90;;;;;;5079100;28;20456;-83
2022/07/22 03:57:09;;;;;;;72.93;12.83;;;18.20;99.90;;;;;;5080850;28;20251;-82
2022/07/22 03:59:35;;;;;;;69.50;13.00;;;18.20;99.90;;;;;;5080410;28;20422;-83
2022/07/22 04:02:02;;;;;;;71.83;12.70;;;18.20;99.90;;;;;;5061126;28;20179;-82
2022/07/22 04:04:27;;;;;;;71.73;11.80;;;18.20;99.90;;;;;;5078914;28;20497;-83
2022/07/22 04:06:53;;;;;;;75.67;13.67;;;18.10;99.90;;;;;;5079980;28;20426;-83
2022/07/22 04:09:19;;;;;;;69.20;10.63;;;18.10;99.90;;;;;;5080122;28;20191;-84
2022/07/22 04:11:45;;;;;;;69.60;12.37;;;18.20;99.90;;;;;;5079980;28;20215;-83
2022/07/22 04:14:11;;;;;;;73.07;15.03;;;18.10;99.90;;;;;;5080009;28;20410;-83
2022/07/22 04:16:36;;;;;;;69.97;13.80;;;18.10;99.90;;;;;;5079197;28;20251;-83
2022/07/22 04:19:03;;;;;;;69.40;12.80;;;18.10;99.90;;;;;;5079522;28;20184;-83
2022/07/22 04:21:29;;;;;;;70.00;11.40;;;18.20;99.90;;;;;;5079675;28;20222;-83
2022/07/22 04:23:55;;;;;;;73.97;14.93;;;18.20;99.90;;;;;;5080216;28;20784;-83
2022/07/22 04:26:21;;;;;;;72.90;13.27;;;18.20;99.90;;;;;;5079720;28;20933;-83
2022/07/22 04:28:48;;;;;;;72.87;10.50;;;18.20;99.90;;;;;;5080308;28;20458;-82
2022/07/22 04:31:13;;;;;;;72.73;14.50;;;18.20;99.90;;;;;;5079485;28;20410;-83
2022/07/22 04:33:39;;;;;;;73.30;14.87;;;18.20;99.90;;;;;;5062064;28;20773;-82
2022/07/22 04:36:05;;;;;;;79.13;13.07;;;18.30;99.90;;;;;;5080601;28;20228;-83
2022/07/22 04:38:31;;;;;;;70.30;14.70;;;18.30;99.90;;;;;;5079435;28;20226;-83
2022/07/22 04:40:57;;;;;;;70.87;15.30;;;18.30;99.90;;;;;;5079856;28;20398;-83
2022/07/22 04:43:23;;;;;;;74.10;13.50;;;18.30;99.90;;;;;;5062189;28;20176;-83
2022/07/22 04:45:49;;;;;;;72.53;15.03;;;18.30;99.90;;;;;;5061053;28;20448;-83
2022/07/22 04:48:16;;;;;;;71.17;12.53;;;18.40;99.90;;;;;;5080136;28;20483;-83
2022/07/22 04:50:42;;;;;;;69.50;9.83;;;18.40;99.90;;;;;;5079625;28;20405;-82
2022/07/22 04:53:08;;;;;;;69.17;10.80;;;18.50;99.90;;;;;;5079752;28;20448;-83
2022/07/22 04:55:34;;;;;;;69.50;11.80;;;18.40;99.90;;;;;;5061359;28;20493;-83
2022/07/22 04:57:59;;;;;;;73.30;11.63;;;18.40;99.90;;;;;;5079494;28;20183;-83
2022/07/22 05:00:25;;;;;;;68.40;13.53;;;18.30;99.90;;;;;;5080493;28;20172;-83
2022/07/22 05:02:51;;;;;;;70.03;11.13;;;18.30;99.90;;;;;;5079602;28;20523;-83
2022/07/22 05:05:17;;;;;;;68.53;10.47;;;18.30;99.90;;;;;;5081507;28;20414;-83
2022/07/22 05:07:43;;;;;;;73.97;14.60;;;18.40;99.90;;;;;;5065596;28;20434;-83
2022/07/22 05:10:09;;;;;;;68.63;11.93;;;18.40;99.90;;;;;;5083586;28;20402;-83
2022/07/22 05:12:35;;;;;;;68.00;10.03;;;18.40;99.90;;;;;;5065311;28;20204;-83
2022/07/22 05:15:01;;;;;;;67.87;10.80;;;18.40;99.90;;;;;;5083781;28;20414;-83
2022/07/22 05:17:27;;;;;;;71.80;11.93;;;18.30;99.90;;;;;;5083975;28;20785;-83
2022/07/22 05:19:53;;;;;;;66.77;8.47;;;18.40;99.90;;;;;;5065535;28;20410;-82
2022/07/22 05:22:19;;;;;;;67.93;10.60;;;18.40;99.90;;;;;;5065924;28;20179;-82
2022/07/22 05:24:45;;;;;;;67.37;9.60;;;18.30;99.90;;;;;;5064908;28;20456;-82
2022/07/22 05:27:11;;;;;;;66.80;10.13;;;18.20;99.90;;;;;;5065896;28;20418;-83
2022/07/22 05:29:37;;;;;;;68.90;9.50;;;18.30;99.90;;;;;;5083667;28;20436;-82
2022/07/22 05:32:03;;;;;;;67.60;8.40;;;18.30;99.90;;;;;;5085146;28;20220;-83
2022/07/22 05:34:29;;;;;;;67.40;8.10;;;18.40;99.90;;;;;;5085273;28;20411;-82
2022/07/22 05:36:55;;;;;;;66.80;8.40;;;18.40;99.90;;;;;;5067238;28;20853;-82
2022/07/22 05:39:20;;;;;;;66.57;8.23;;;18.40;99.90;;;;;;5083221;28;20426;-82
2022/07/22 05:41:46;;;;;;;76.20;8.77;;;18.50;99.90;;;;;;5083315;28;20690;-83
2022/07/22 05:44:13;;;;;;;69.40;7.73;;;18.50;99.90;;;;;;5082900;28;20199;-83
2022/07/22 05:46:39;;;;;;;70.10;7.63;;;18.50;99.90;;;;;;5084438;28;20235;-83
2022/07/22 05:49:06;;;;;;;67.63;7.60;;;18.50;99.90;;;;;;5065702;28;20438;-83
2022/07/22 05:51:32;;;;;;;70.23;9.40;;;18.50;99.90;;;;;;5065459;28;20446;-83
2022/07/22 05:53:58;;;;;;;69.43;10.50;;;18.50;99.90;;;;;;5084417;28;20905;-83
2022/07/22 05:56:23;;;;;;;68.33;8.90;;;18.50;99.90;;;;;;5065785;28;20164;-83
2022/07/22 05:58:49;;;;;;;70.80;9.83;;;18.60;99.90;;;;;;5064798;28;20432;-83
2022/07/22 06:01:15;;;;;;;75.83;9.63;;;18.60;99.90;;;;;;5082683;28;20156;-83
2022/07/22 06:03:41;;;;;;;70.80;9.60;;;18.50;99.90;;;;;;5082949;28;20160;-83
2022/07/22 06:06:08;;;;;;;68.70;9.07;;;18.50;99.90;;;;;;5082615;28;20137;-83
2022/07/22 06:08:35;;;;;;;68.97;8.83;;;18.50;99.90;;;;;;5064807;28;20438;-82
2022/07/22 06:11:01;;;;;;;72.73;11.43;;;18.60;99.90;;;;;;5083737;28;20477;-83
2022/07/22 06:13:28;;;;;;;70.67;11.70;;;18.60;99.90;;;;;;5084228;28;20468;-83
2022/07/22 06:15:53;;;;;;;77.03;13.40;;;18.60;99.90;;;;;;5083838;28;20410;-83
2022/07/22 06:18:19;;;;;;;76.53;11.33;;;18.60;99.90;;;;;;5083747;28;20425;-83
2022/07/22 06:20:45;;;;;;;76.20;13.90;;;18.70;99.90;;;;;;5066659;28;20171;-83
2022/07/22 06:23:11;;;;;;;73.10;12.80;;;18.80;99.90;;;;;;5084983;28;20176;-83
2022/07/22 06:25:37;;;;;;;73.57;15.87;;;18.80;99.90;;;;;;5085318;28;20410;-83
2022/07/22 06:28:03;;;;;;;74.10;13.93;;;18.80;99.90;;;;;;5084510;28;20188;-83
2022/07/22 06:30:29;;;;;;;74.63;15.13;;;18.80;99.90;;;;;;5065773;28;21039;-83
2022/07/22 06:32:54;;;;;;;74.20;12.73;;;18.70;99.90;;;;;;5084852;28;20254;-83
2022/07/22 06:35:20;;;;;;;75.50;12.27;;;18.70;99.90;;;;;;5084287;28;20168;-83
2022/07/22 06:37:46;;;;;;;78.83;12.27;;;18.70;99.90;;;;;;5065738;28;20278;-83
2022/07/22 06:40:12;;;;;;;78.50;14.77;;;18.80;99.90;;;;;;5065974;28;20169;-83
2022/07/22 06:42:39;;;;;;;73.13;14.97;;;18.80;99.90;;;;;;5085568;28;20189;-83
2022/07/22 06:45:06;;;;;;;78.23;16.23;;;18.90;99.90;;;;;;5084488;28;20982;-83
2022/07/22 06:47:35;;;;;;;79.03;18.80;;;19.00;99.90;;;;;;5085077;28;20422;-83
2022/07/22 06:50:05;;;;;;;79.93;18.10;;;19.10;99.90;;;;;;5085039;28;20468;-84
2022/07/22 06:52:30;;;;;;;81.40;21.43;;;19.10;99.90;;;;;;5083718;28;20454;-82
2022/07/22 06:54:56;;;;;;;81.37;19.70;;;19.20;99.90;;;;;;5083802;28;20551;-83
2022/07/22 06:57:22;;;;;;;76.50;17.90;;;19.20;99.90;;;;;;5083726;28;20175;-83
2022/07/22 06:59:48;;;;;;;75.60;20.90;;;19.20;99.90;;;;;;5083540;28;20631;-83
2022/07/22 07:02:13;;;;;;;78.57;20.13;;;19.30;99.90;;;;;;5083383;28;20808;-83
2022/07/22 07:04:39;;;;;;;78.40;25.30;;;19.30;99.90;;;;;;5065685;28;20179;-83
2022/07/22 07:07:05;;;;;;;80.60;21.57;;;19.40;99.90;;;;;;5084704;28;20168;-83
2022/07/22 07:09:31;;;;;;;78.57;23.80;;;19.40;99.90;;;;;;5065259;28;20168;-83
2022/07/22 07:11:56;;;;;;;76.60;25.93;;;19.40;99.90;;;;;;5082978;28;20196;-83
2022/07/22 07:14:22;;;;;;;80.17;23.57;;;19.40;99.90;;;;;;5082278;28;20694;-83
2022/07/22 07:16:48;;;;;;;75.30;20.70;;;19.40;99.90;;;;;;5081738;28;20168;-83
2022/07/22 07:19:13;;;;;;;76.03;21.33;;;19.40;99.90;;;;;;5080375;28;20251;-82
2022/07/22 07:21:39;;;;;;;75.80;15.13;;;19.40;99.90;;;;;;5083467;28;20188;-82
2022/07/22 07:24:05;;;;;;;71.40;14.97;;;19.30;99.90;;;;;;5061506;28;20173;-82
2022/07/22 07:26:31;;;;;;;71.07;15.07;;;19.10;99.90;;;;;;5079217;28;20164;-82
2022/07/22 07:28:57;;;;;;;73.90;15.37;;;19.00;99.90;;;;;;5077969;28;20792;-82
2022/07/22 07:31:22;;;;;;;76.70;17.57;;;19.00;99.90;;;;;;5062584;28;20407;-83
2022/07/22 07:33:48;;;;;;;69.17;12.50;;;19.00;99.90;;;;;;5062484;28;20232;-83
2022/07/22 07:36:14;;;;;;;69.80;14.27;;;19.00;99.90;;;;;;5082320;28;20160;-83
2022/07/22 07:38:40;;;;;;;71.97;16.47;;;18.90;99.90;;;;;;5081982;28;20206;-83
2022/07/22 07:41:06;;;;;;;72.17;18.47;;;19.00;99.90;;;;;;5064084;28;20164;-83
2022/07/22 07:43:32;;;;;;;72.00;14.97;;;19.00;99.90;;;;;;5064981;28;20439;-83
2022/07/22 07:45:58;;;;;;;75.03;14.90;;;19.10;99.90;;;;;;5081470;28;20235;-83
2022/07/22 07:48:23;;;;;;;77.90;14.93;;;19.20;99.90;;;;;;5081658;28;20450;-83
2022/07/22 07:50:49;;;;;;;69.30;9.80;;;19.20;99.90;;;;;;5064665;28;20168;-83
2022/07/22 07:53:16;;;;;;;69.67;11.10;;;19.30;99.90;;;;;;5083092;28;20275;-83
2022/07/22 07:55:42;;;;;;;70.20;10.47;;;19.20;99.90;;;;;;5082876;28;20175;-83
2022/07/22 07:58:08;;;;;;;71.97;10.50;;;19.30;99.90;;;;;;5064865;28;20434;-83
2022/07/22 08:00:35;;;;;;;68.10;9.70;;;19.20;99.90;;;;;;5082254;28;20168;-83
2022/07/22 08:03:02;;;;;;;69.47;7.93;;;19.30;99.90;;;;;;5082372;28;20406;-83
2022/07/22 08:05:28;;;;;;;67.27;8.77;;;19.40;99.90;;;;;;5082187;28;20451;-83
2022/07/22 08:07:54;;;;;;;74.50;9.53;;;19.50;99.90;;;;;;5082360;28;20438;-83
2022/07/22 08:10:20;;;;;;;67.50;8.63;;;19.50;99.90;;;;;;5081146;28;20455;-83
2022/07/22 08:12:46;;;;;;;71.47;10.23;;;19.40;99.90;;;;;;5082750;28;20670;-83
2022/07/22 08:15:12;;;;;;;67.30;8.87;;;19.30;99.90;;;;;;5064249;28;20167;-83
2022/07/22 08:17:38;;;;;;;71.13;7.90;;;19.50;99.90;;;;;;5081012;28;20415;-83
2022/07/22 08:20:05;;;;;;;69.47;8.97;;;19.50;99.90;;;;;;5080789;28;20411;-83
2022/07/22 08:22:30;;;;;;;69.70;10.10;;;19.60;99.90;;;;;;5082454;28;20259;-82
2022/07/22 08:24:56;;;;;;;69.40;11.10;;;19.60;99.90;;;;;;5082191;28;20976;-83
2022/07/22 08:27:22;;;;;;;74.37;10.67;;;19.70;99.90;;;;;;5082083;28;20190;-82
2022/07/22 08:29:48;;;;;;;68.20;11.27;;;19.70;99.90;;;;;;5082134;28;20199;-83
2022/07/22 08:32:14;;;;;;;70.07;8.87;;;19.70;99.90;;;;;;5064548;28;20198;-83
2022/07/22 08:34:39;;;;;;;66.97;10.07;;;19.70;99.90;;;;;;5063545;28;20165;-83
2022/07/22 08:37:05;;;;;;;70.60;11.80;;;19.90;99.90;;;;;;5063012;28;20425;-82
2022/07/22 08:39:34;;;;;;;71.87;12.40;;;20.00;99.90;;;;;;5063620;28;20176;-83
2022/07/22 08:42:00;;;;;;;71.37;12.50;;;20.10;99.90;;;;;;5068683;28;20162;-83
2022/07/22 08:44:33;;;;;;;70.43;14.17;;;20.20;99.90;;;;;;5086242;28;20428;-82
2022/07/22 08:47:00;;;;;;;73.77;9.57;;;20.40;99.90;;;;;;5085566;28;20440;-83
2022/07/22 08:49:26;;;;;;;70.07;9.00;;;20.50;99.90;;;;;;5067055;28;20836;-83
2022/07/22 08:51:52;;;;;;;73.87;8.90;;;20.60;99.90;;;;;;5085660;28;20444;-83
2022/07/22 08:54:18;;;;;;;73.37;10.50;;;20.80;99.90;;;;;;5085100;28;20436;-83
2022/07/22 08:56:52;;;;;;;70.10;12.70;;;20.90;99.90;;;;;;5085766;28;20395;-83
2022/07/22 08:59:18;;;;;;;73.03;13.00;;;21.10;99.90;;;;;;5067413;28;20185;-83
2022/07/22 09:02:08;;;;;;;74.20;12.40;;;21.20;99.90;;;;;;5084969;28;20397;-83
2022/07/22 09:04:50;;;;;;;71.07;10.80;;;21.30;99.90;;;;;;5085374;28;20385;-82
2022/07/22 09:07:24;;;;;;;69.87;12.10;;;21.40;99.90;;;;;;5068197;28;20973;-83
2022/07/22 09:09:50;;;;;;;72.90;15.33;;;21.40;99.90;;;;;;5068612;28;20402;-83
2022/07/22 09:12:15;;;;;;;70.63;12.77;;;21.60;99.80;;;;;;5086606;28;20442;-83
2022/07/22 09:14:46;;;;;;;71.80;13.57;;;21.70;99.90;;;;;;5068030;28;21001;-83
2022/07/22 09:17:29;;;;;;;73.30;16.27;;;21.80;99.90;;;;;;5066255;28;20165;-83
2022/07/22 09:19:56;;;;;;;73.80;17.20;;;21.70;96.80;;;;;;5085412;28;20463;-83
2022/07/22 09:22:32;;;;;;;72.13;16.90;;;21.70;97.50;;;;;;5086040;28;20432;-82
2022/07/22 09:24:59;;;;;;;75.20;15.67;;;21.90;99.00;;;;;;5087034;28;20426;-83
2022/07/22 09:27:28;;;;;;;74.03;15.33;;;21.90;92.80;;;;;;5067129;28;20478;-83
2022/07/22 09:29:56;;;;;;;74.10;14.57;;;21.80;93.20;;;;;;5084606;28;20406;-83
2022/07/22 09:32:22;;;;;;;78.80;19.40;;;21.90;95.50;;;;;;5084992;28;20445;-83
2022/07/22 09:34:47;;;;;;;73.20;14.93;;;21.80;86.00;;;;;;5084281;28;20398;-82
2022/07/22 09:37:14;;;;;;;74.83;15.00;;;21.70;92.10;;;;;;5085355;28;20885;-83
2022/07/22 09:39:39;;;;;;;78.70;14.40;;;21.80;90.60;;;;;;5085570;28;20156;-83
2022/07/22 09:42:07;;;;;;;77.83;16.33;;;21.90;89.20;;;;;;5068747;28;20441;-83
2022/07/22 09:44:33;;;;;;;77.30;16.17;;;22.10;90.80;;;;;;5087805;28;20188;-83
2022/07/22 09:46:59;;;;;;;77.77;16.03;;;21.90;86.20;;;;;;5068558;28;20438;-82
2022/07/22 09:49:33;;;;;;;77.43;15.53;;;22.00;89.70;;;;;;5086185;28;20410;-83
2022/07/22 09:52:01;;;;;;;75.67;13.80;;;22.00;83.20;;;;;;5085283;28;20226;-83
2022/07/22 09:54:31;;;;;;;76.97;12.00;;;22.30;82.60;;;;;;5086578;28;20485;-83
2022/07/22 09:56:57;;;;;;;77.07;12.87;;;22.30;72.80;;;;;;5086827;28;20463;-83
2022/07/22 09:59:23;;;;;;;78.57;15.70;;;22.20;70.90;;;;;;5085687;28;20422;-83
2022/07/22 10:01:53;;;;;;;74.67;11.77;;;22.30;90.50;;;;;;5085081;28;20402;-83
2022/07/22 10:04:20;;;;;;;74.17;10.27;;;22.60;59.80;;;;;;5084476;28;20561;-83
2022/07/22 10:06:48;;;;;;;76.40;10.20;;;22.90;63.60;;;;;;5083846;28;20486;-83
2022/07/22 10:09:16;;;;;;;76.70;9.80;;;23.40;52.70;;;;;;5084685;28;20442;-83
2022/07/22 10:11:45;;;;;;;74.10;9.00;;;23.60;53.50;;;;;;5083981;28;20442;-83
2022/07/22 10:14:13;;;;;;;76.03;9.60;;;23.40;41.20;;;;;;5066708;28;20422;-83
2022/07/22 10:16:39;;;;;;;74.10;8.23;;;23.60;48.30;;;;;;5084630;28;20456;-83
2022/07/22 10:19:05;;;;;;;76.43;9.70;;;23.60;47.10;;;;;;5085146;28;20427;-83
2022/07/22 10:21:33;;;;;;;76.90;10.67;;;23.60;32.90;;;;;;5084351;28;20407;-83
2022/07/22 10:24:17;;;;;;;74.77;9.50;;;22.90;49.00;;;;;;5066368;28;20487;-83
2022/07/22 10:26:57;;;;;;;77.43;10.17;;;22.70;48.50;;;;;;5085386;28;20379;-83
2022/07/22 10:29:43;;;;;;;78.20;10.37;;;22.70;55.60;;;;;;5066677;28;20517;-83
2022/07/22 10:32:17;;;;;;;74.97;9.43;;;22.60;53.30;;;;;;5085279;28;20430;-83
2022/07/22 10:34:59;;;;;;;76.70;9.57;;;23.00;52.70;;;;;;5066927;28;20421;-83
2022/07/22 10:37:33;;;;;;;74.20;8.63;;;23.20;45.60;;;;;;5084830;28;20446;-83
2022/07/22 10:40:26;;;;;;;74.67;9.57;;;23.20;35.20;;;;;;5065082;28;20406;-83
2022/07/22 10:43:00;;;;;;;73.67;10.07;;;23.20;33.40;;;;;;5082598;28;20434;-83
2022/07/22 10:45:30;;;;;;;72.30;9.27;;;23.30;28.20;;;;;;5064554;28;20417;-83
2022/07/22 10:48:09;;;;;;;74.50;10.27;;;23.10;24.10;;;;;;5065019;28;20441;-83
2022/07/22 10:50:37;;;;;;;74.20;10.23;;;23.10;35.90;;;;;;5065453;28;20405;-83
2022/07/22 10:53:06;;;;;;;75.87;10.43;;;23.30;31.10;;;;;;5066065;28;20801;-83
2022/07/22 10:55:33;;;;;;;74.47;10.60;;;23.30;37.90;;;;;;5082623;28;20398;-83
2022/07/22 10:57:59;;;;;;;77.00;11.37;;;23.20;41.30;;;;;;5082785;28;20430;-83
2022/07/22 11:00:26;;;;;;;75.40;10.90;;;23.40;29.00;;;;;;5065776;28;20917;-83
2022/07/22 11:02:52;;;;;;;80.60;11.67;;;23.50;29.40;;;;;;5066527;28;20816;-83
2022/07/22 11:05:30;;;;;;;75.37;11.10;;;23.40;26.90;;;;;;5065462;28;20406;-83
2022/07/22 11:07:56;;;;;;;73.77;8.80;;;23.30;32.80;;;;;;5083902;28;20184;-84
2022/07/22 11:10:21;;;;;;;74.90;10.00;;;23.60;51.20;;;;;;5065430;28;20413;-84
2022/07/22 11:12:49;;;;;;;77.13;12.80;;;24.20;47.00;;;;;;5082623;28;20257;-83
2022/07/22 11:15:15;;;;;;;80.10;14.30;;;24.70;17.30;;;;;;5081657;28;20527;-84
2022/07/22 11:17:41;;;;;;;76.10;14.17;;;25.00;12.60;;;;;;5066263;28;20416;-84
2022/07/22 11:20:09;;;;;;;78.93;15.50;;;25.20;1.00;;;;;;5082471;28;20500;-84
2022/07/22 11:22:36;;;;;;;74.93;12.30;;;25.40;1.00;;;;;;5081949;28;20174;-84
2022/07/22 11:25:05;;;;;;;74.57;10.53;;;25.60;1.00;;;;;;5066082;28;20478;-83
2022/07/22 11:27:31;;;;;;;75.67;11.47;;;25.60;1.00;;;;;;5081380;28;20767;-83
2022/07/22 11:29:57;;;;;;;74.13;9.17;;;25.70;1.00;;;;;;5066542;28;20512;-83
2022/07/22 11:32:26;;;;;;;76.30;10.73;;;25.40;1.00;;;;;;5065753;28;20453;-83
2022/07/22 11:34:51;;;;;;;77.70;9.40;;;25.30;1.00;;;;;;5084228;28;20402;-83
2022/07/22 11:37:19;;;;;;;76.10;12.27;;;25.10;1.00;;;;;;5083468;28;20409;-83
2022/07/22 11:39:46;;;;;;;78.73;12.03;;;24.80;5.60;;;;;;5082226;28;20158;-83
2022/07/22 11:42:12;;;;;;;81.90;18.03;;;24.60;2.50;;;;;;5065841;28;20409;-83
2022/07/22 11:44:39;;;;;;;77.33;12.03;;;24.80;16.60;;;;;;5065172;28;20490;-83
2022/07/22 11:47:07;;;;;;;75.20;10.33;;;24.70;8.30;;;;;;5080669;28;20467;-83
2022/07/22 11:49:35;;;;;;;77.77;15.00;;;25.00;5.40;;;;;;5082238;28;20447;-83
2022/07/22 11:52:11;;;;;;;74.47;10.37;;;25.30;10.80;;;;;;5064290;28;20563;-83
2022/07/22 11:54:38;;;;;;;74.80;9.70;;;25.70;10.00;;;;;;5064839;28;20505;-83
2022/07/22 11:57:04;;;;;;;76.53;9.20;;;26.10;1.00;;;;;;5065012;28;20441;-82
2022/07/22 11:59:30;;;;;;;73.37;7.80;;;26.00;1.00;;;;;;5067255;28;20417;-82
2022/07/22 12:01:56;;;;;;;74.50;9.47;;;25.90;1.00;;;;;;5084723;28;20401;-82
2022/07/22 12:04:25;;;;;;;74.47;8.30;;;25.60;1.00;;;;;;5083856;28;20199;-83
2022/07/22 12:06:53;;;;;;;75.37;8.70;;;25.00;1.00;;;;;;5063875;28;20410;-83
2022/07/22 12:09:19;;;;;;;74.33;8.40;;;24.90;1.00;;;;;;5065160;28;20446;-81
2022/07/22 12:11:51;;;;;;;73.27;9.33;;;24.90;1.00;;;;;;5062771;28;20453;-82
2022/07/22 12:14:21;;;;;;;76.17;9.80;;;25.10;2.00;;;;;;5079899;28;20849;-81
2022/07/22 12:16:59;;;;;;;75.47;9.57;;;25.40;1.60;;;;;;5081129;28;20936;-82
2022/07/22 12:19:30;;;;;;;76.03;8.13;;;25.60;1.00;;;;;;5064186;28;20390;-83
2022/07/22 12:22:01;;;;;;;73.00;8.27;;;25.60;1.00;;;;;;5081901;28;20417;-83
2022/07/22 12:24:31;;;;;;;76.50;8.77;;;25.40;1.00;;;;;;5061856;28;20449;-83
2022/07/22 12:27:00;;;;;;;73.27;8.40;;;25.20;1.00;;;;;;5082237;28;20400;-83
2022/07/22 12:29:29;;;;;;;76.50;8.97;;;24.80;1.00;;;;;;5082043;28;20413;-83